Item Display Status Serial CT Sensor

Mooring Depth: 1 m

 

Deployed Sensor

  • Serial Number: 8808
  • NDBC Property Number: 35223
  • Start Date: 4/17/2018 (14:16:36 Z)
  • End Date: Currently Active
Water Temperature [°C]     6 entries per hour
Showing data from 8/21/2019 (07:00:00 Z) to 8/20/2019 (00:00:01 Z)
Previous Next [ Day | 3-Days | 7-Days ]
First Last
Prev [ Day | 3-Days | 7-Days ] Next
First Last

Start Time:     :
End Time:     :     
Time (in GMT) :00 :50 :40 :30 :20 :10
Previous Next [ Day | 3-Days | 7-Days ]
First Last
Prev [ Day | 3-Days | 7-Days ] Next
First Last


123 => good data
MM => data is determined as missing
-- => data not received/configured
Back to Top Back to Top
8/21/2019 07:00 to 6:10 28.728 28.722 28.798 28.766 28.755 28.779
8/21/2019 06:00 to 5:10 28.777 28.770 28.778 28.773 28.787 28.809
8/21/2019 05:00 to 4:10 28.788 28.771 28.778 28.826 28.853 28.849
8/21/2019 04:00 to 3:10 28.856 28.869 28.884 28.867 28.868 28.903
8/21/2019 03:00 to 2:10 28.906 28.911 28.927 28.920 28.891 28.915
8/21/2019 02:00 to 1:10 28.859 28.904 28.872 28.909 28.835 28.882
8/21/2019 01:00 to 0:10 28.850 28.882 28.805 28.851 28.830 28.806
8/21/2019 00:00 to 23:10 28.805 28.785 28.776 28.772 28.763 28.760
8/20/2019 23:00 to 22:10 28.770 28.736 28.727 28.727 28.723 28.706
8/20/2019 22:00 to 21:10 28.690 28.693 28.681 28.687 28.682 28.672
8/20/2019 21:00 to 20:10 28.652 28.649 28.654 28.645 28.638 28.636
8/20/2019 20:00 to 19:10 28.641 28.638 28.634 28.629 28.634 28.638
8/20/2019 19:00 to 18:10 28.635 28.630 28.633 28.634 28.629 28.634
8/20/2019 18:00 to 17:10 28.628 28.638 28.636 28.623 28.635 28.641
8/20/2019 17:00 to 16:10 28.651 28.642 28.650 28.646 28.655 28.640
8/20/2019 16:00 to 15:10 28.654 28.650 28.648 28.638 28.654 28.650
8/20/2019 15:00 to 14:10 28.626 28.636 28.647 28.635 28.652 28.635
8/20/2019 14:00 to 13:10 28.653 28.658 28.650 28.657 28.658 28.648
8/20/2019 13:00 to 12:10 28.654 28.644 28.647 28.657 28.649 28.657
8/20/2019 12:00 to 11:10 28.657 28.654 28.664 28.646 28.659 28.668
8/20/2019 11:00 to 10:10 28.657 28.663 28.664 28.664 28.669 28.683
8/20/2019 10:00 to 9:10 28.677 28.701 28.691 28.689 28.699 28.707
8/20/2019 09:00 to 8:10 28.708 28.741 28.691 28.693 28.679 28.675
8/20/2019 08:00 to 7:10 28.672 28.685 28.703 28.714 28.682 28.689
8/20/2019 07:00 to 6:10 28.700 28.717 28.716 28.737 28.758 28.748
8/20/2019 06:00 to 5:10 28.749 28.766 28.759 28.770 28.794 28.797
8/20/2019 05:00 to 4:10 28.797 28.797 28.810 28.802 28.825 28.824
8/20/2019 04:00 to 3:10 28.854 28.845 28.847 28.846 28.875 28.900
8/20/2019 03:00 to 2:10 28.885 28.878 28.864 28.897 28.841 28.838
8/20/2019 02:00 to 1:10 28.858 28.848 28.860 28.862 28.829 28.829
8/20/2019 01:00 to 0:10 28.837 28.818 28.803 28.816 28.812 28.786

 

 

 

Conductivity [S/m]     6 entries per hour
Showing data from 8/21/2019 (07:00:00 Z) to 8/20/2019 (00:00:01 Z)
Previous Next [ Day | 3-Days | 7-Days ]
First Last
Prev [ Day | 3-Days | 7-Days ] Next
First Last

Start Time:     :
End Time:     :     
Time (in GMT) :00 :50 :40 :30 :20 :10
Previous Next [ Day | 3-Days | 7-Days ]
First Last
Prev [ Day | 3-Days | 7-Days ] Next
First Last


123 => good data
MM => data is determined as missing
-- => data not received/configured
Back to Top Back to Top
8/21/2019 07:00 to 6:10 5.73005 5.72975 5.73793 5.73471 5.73373 5.73601
8/21/2019 06:00 to 5:10 5.73625 5.73563 5.73631 5.73611 5.73809 5.74113
8/21/2019 05:00 to 4:10 5.73828 5.73635 5.73719 5.74235 5.74530 5.74549
8/21/2019 04:00 to 3:10 5.74517 5.74704 5.74908 5.74695 5.74835 5.75211
8/21/2019 03:00 to 2:10 5.75178 5.75283 5.75401 5.75398 5.75312 5.75522
8/21/2019 02:00 to 1:10 5.74860 5.75358 5.75093 5.75417 5.74557 5.75022
8/21/2019 01:00 to 0:10 5.74723 5.75024 5.74207 5.74721 5.74463 5.74189
8/21/2019 00:00 to 23:10 5.74168 5.74012 5.73836 5.73858 5.73776 5.73725
8/20/2019 23:00 to 22:10 5.73858 5.73508 5.73457 5.73444 5.73392 5.73181
8/20/2019 22:00 to 21:10 5.73016 5.73027 5.72964 5.72931 5.72875 5.72746
8/20/2019 21:00 to 20:10 5.72509 5.72435 5.72493 5.72461 5.72354 5.72277
8/20/2019 20:00 to 19:10 5.72351 5.72310 5.72261 5.72141 5.72222 5.72288
8/20/2019 19:00 to 18:10 5.72216 5.72190 5.72185 5.72124 5.72143 5.72185
8/20/2019 18:00 to 17:10 5.72055 5.72219 5.72183 5.72015 5.72219 5.72261
8/20/2019 17:00 to 16:10 5.72354 5.72291 5.72403 5.72358 5.72423 5.72262
8/20/2019 16:00 to 15:10 5.72421 5.72351 5.72375 5.72276 5.72400 5.72336
8/20/2019 15:00 to 14:10 5.72105 5.72165 5.72346 5.72206 5.72372 5.72149
8/20/2019 14:00 to 13:10 5.72416 5.72444 5.72372 5.72380 5.72417 5.72307
8/20/2019 13:00 to 12:10 5.72351 5.72254 5.72235 5.72400 5.72264 5.72380
8/20/2019 12:00 to 11:10 5.72361 5.72276 5.72402 5.72252 5.72370 5.72462
8/20/2019 11:00 to 10:10 5.72404 5.72412 5.72435 5.72385 5.72438 5.72671
8/20/2019 10:00 to 9:10 5.72631 5.72786 5.72642 5.72695 5.72870 5.72948
8/20/2019 09:00 to 8:10 5.72977 5.73335 5.72870 5.72915 5.72765 5.72729
8/20/2019 08:00 to 7:10 5.72683 5.72831 5.73048 5.73119 5.72777 5.72848
8/20/2019 07:00 to 6:10 5.73037 5.73214 5.73243 5.73454 5.73675 5.73594
8/20/2019 06:00 to 5:10 5.73711 5.73772 5.73732 5.73915 5.74153 5.74156
8/20/2019 05:00 to 4:10 5.74168 5.74198 5.74320 5.74260 5.74475 5.74465
8/20/2019 04:00 to 3:10 5.74785 5.74698 5.74720 5.74707 5.75007 5.75600
8/20/2019 03:00 to 2:10 5.75670 5.75562 5.75427 5.75742 5.75136 5.75105
8/20/2019 02:00 to 1:10 5.75219 5.75183 5.75351 5.75310 5.74974 5.74948
8/20/2019 01:00 to 0:10 5.75067 5.74874 5.74694 5.74838 5.74741 5.74447

 

 

 

Salinity [psu]     6 entries per hour
Showing data from 8/21/2019 (07:00:00 Z) to 8/20/2019 (00:00:01 Z)
Previous Next [ Day | 3-Days | 7-Days ]
First Last
Prev [ Day | 3-Days | 7-Days ] Next
First Last

Start Time:     :
End Time:     :     
Time (in GMT) :00 :50 :40 :30 :20 :10
Previous Next [ Day | 3-Days | 7-Days ]
First Last
Prev [ Day | 3-Days | 7-Days ] Next
First Last


123 => good data
MM => data is determined as missing
-- => data not received/configured
Back to Top Back to Top
8/21/2019 07:00 to 6:10 35.21 35.21 35.21 35.21 35.21 35.21
8/21/2019 06:00 to 5:10 35.21 35.22 35.21 35.22 35.22 35.22
8/21/2019 05:00 to 4:10 35.22 35.22 35.22 35.22 35.22 35.22
8/21/2019 04:00 to 3:10 35.22 35.22 35.22 35.22 35.23 35.23
8/21/2019 03:00 to 2:10 35.23 35.23 35.23 35.23 35.25 35.24
8/21/2019 02:00 to 1:10 35.24 35.24 35.25 35.24 35.24 35.23
8/21/2019 01:00 to 0:10 35.24 35.23 35.23 35.24 35.23 35.23
8/21/2019 00:00 to 23:10 35.23 35.23 35.23 35.23 35.23 35.23
8/20/2019 23:00 to 22:10 35.24 35.24 35.24 35.24 35.24 35.24
8/20/2019 22:00 to 21:10 35.24 35.23 35.24 35.23 35.23 35.23
8/20/2019 21:00 to 20:10 35.23 35.23 35.23 35.23 35.23 35.22
8/20/2019 20:00 to 19:10 35.23 35.23 35.23 35.22 35.22 35.22
8/20/2019 19:00 to 18:10 35.22 35.22 35.22 35.22 35.22 35.22
8/20/2019 18:00 to 17:10 35.22 35.22 35.22 35.22 35.22 35.22
8/20/2019 17:00 to 16:10 35.22 35.22 35.22 35.22 35.22 35.22
8/20/2019 16:00 to 15:10 35.22 35.22 35.22 35.22 35.22 35.22
8/20/2019 15:00 to 14:10 35.22 35.22 35.22 35.22 35.22 35.22
8/20/2019 14:00 to 13:10 35.22 35.22 35.22 35.22 35.22 35.22
8/20/2019 13:00 to 12:10 35.22 35.22 35.21 35.22 35.21 35.22
8/20/2019 12:00 to 11:10 35.22 35.21 35.21 35.22 35.21 35.21
8/20/2019 11:00 to 10:10 35.22 35.21 35.22 35.21 35.21 35.22
8/20/2019 10:00 to 9:10 35.22 35.21 35.21 35.22 35.22 35.22
8/20/2019 09:00 to 8:10 35.22 35.22 35.23 35.23 35.23 35.23
8/20/2019 08:00 to 7:10 35.23 35.23 35.23 35.23 35.23 35.23
8/20/2019 07:00 to 6:10 35.23 35.23 35.23 35.23 35.23 35.23
8/20/2019 06:00 to 5:10 35.24 35.23 35.23 35.24 35.24 35.24
8/20/2019 05:00 to 4:10 35.24 35.24 35.24 35.24 35.24 35.24
8/20/2019 04:00 to 3:10 35.24 35.24 35.24 35.24 35.24 35.26
8/20/2019 03:00 to 2:10 35.28 35.27 35.27 35.27 35.27 35.27
8/20/2019 02:00 to 1:10 35.26 35.27 35.27 35.27 35.27 35.27
8/20/2019 01:00 to 0:10 35.27 35.27 35.27 35.27 35.27 35.26